sensor_id;sensor_type;location;lat;lon;timestamp;pressure;altitude;pressure_sealevel;temperature;humidity
57827;BME280;43656;57.746;11.780;2022-11-21T00:00:18;100179.72;;;1.83;100.00
57827;BME280;43656;57.746;11.780;2022-11-21T00:02:44;100147.63;;;1.68;100.00
57827;BME280;43656;57.746;11.780;2022-11-21T00:05:09;100179.53;;;1.76;100.00
57827;BME280;43656;57.746;11.780;2022-11-21T00:07:36;100148.00;;;1.73;100.00
57827;BME280;43656;57.746;11.780;2022-11-21T00:10:01;100153.13;;;1.67;100.00
57827;BME280;43656;57.746;11.780;2022-11-21T00:12:26;100151.13;;;1.69;100.00
57827;BME280;43656;57.746;11.780;2022-11-21T00:14:52;100143.25;;;1.85;100.00
57827;BME280;43656;57.746;11.780;2022-11-21T00:17:17;100157.78;;;1.73;100.00
57827;BME280;43656;57.746;11.780;2022-11-21T00:19:43;100149.22;;;1.87;100.00
57827;BME280;43656;57.746;11.780;2022-11-21T00:22:08;100118.53;;;1.84;100.00
57827;BME280;43656;57.746;11.780;2022-11-21T00:24:33;100145.50;;;2.06;100.00
57827;BME280;43656;57.746;11.780;2022-11-21T00:26:59;100126.56;;;2.01;100.00
57827;BME280;43656;57.746;11.780;2022-11-21T00:29:24;100130.75;;;2.11;100.00
57827;BME280;43656;57.746;11.780;2022-11-21T00:31:49;100127.53;;;1.92;100.00
57827;BME280;43656;57.746;11.780;2022-11-21T00:34:15;100127.00;;;1.88;100.00
57827;BME280;43656;57.746;11.780;2022-11-21T00:36:41;100070.97;;;1.49;100.00
57827;BME280;43656;57.746;11.780;2022-11-21T00:39:06;100122.47;;;1.72;100.00
57827;BME280;43656;57.746;11.780;2022-11-21T00:41:32;100114.25;;;1.92;100.00
57827;BME280;43656;57.746;11.780;2022-11-21T00:43:57;100111.84;;;2.06;100.00
57827;BME280;43656;57.746;11.780;2022-11-21T00:46:25;100110.50;;;2.02;100.00
57827;BME280;43656;57.746;11.780;2022-11-21T00:48:50;100109.63;;;1.94;100.00
57827;BME280;43656;57.746;11.780;2022-11-21T00:51:16;100089.28;;;2.02;100.00
57827;BME280;43656;57.746;11.780;2022-11-21T00:53:41;100097.88;;;2.04;100.00
57827;BME280;43656;57.746;11.780;2022-11-21T00:56:07;100103.19;;;2.04;100.00
57827;BME280;43656;57.746;11.780;2022-11-21T00:58:32;100089.22;;;1.86;100.00
57827;BME280;43656;57.746;11.780;2022-11-21T01:01:08;100093.69;;;1.85;100.00
57827;BME280;43656;57.746;11.780;2022-11-21T01:03:35;100096.19;;;1.87;100.00
57827;BME280;43656;57.746;11.780;2022-11-21T01:06:03;100076.28;;;1.91;100.00
57827;BME280;43656;57.746;11.780;2022-11-21T01:08:28;100087.78;;;2.00;100.00
57827;BME280;43656;57.746;11.780;2022-11-21T01:10:54;100079.44;;;1.86;100.00
57827;BME280;43656;57.746;11.780;2022-11-21T01:13:19;100083.41;;;1.82;100.00
57827;BME280;43656;57.746;11.780;2022-11-21T01:15:44;100081.28;;;1.94;100.00
57827;BME280;43656;57.746;11.780;2022-11-21T01:18:10;100070.16;;;1.82;100.00
57827;BME280;43656;57.746;11.780;2022-11-21T01:20:38;100048.94;;;1.91;100.00
57827;BME280;43656;57.746;11.780;2022-11-21T01:23:07;100070.84;;;1.93;100.00
57827;BME280;43656;57.746;11.780;2022-11-21T01:25:33;100078.41;;;1.79;100.00
57827;BME280;43656;57.746;11.780;2022-11-21T01:27:59;100062.50;;;1.87;100.00
57827;BME280;43656;57.746;11.780;2022-11-21T01:30:24;100062.75;;;2.02;100.00
57827;BME280;43656;57.746;11.780;2022-11-21T01:32:49;100052.59;;;1.98;100.00
57827;BME280;43656;57.746;11.780;2022-11-21T01:35:15;100049.19;;;1.71;100.00
57827;BME280;43656;57.746;11.780;2022-11-21T01:37:41;100046.03;;;1.68;100.00
57827;BME280;43656;57.746;11.780;2022-11-21T01:40:07;100057.16;;;1.71;100.00
57827;BME280;43656;57.746;11.780;2022-11-21T01:42:52;100037.56;;;1.64;100.00
57827;BME280;43656;57.746;11.780;2022-11-21T01:45:54;100051.25;;;1.85;100.00
57827;BME280;43656;57.746;11.780;2022-11-21T01:48:24;100032.09;;;1.65;100.00
57827;BME280;43656;57.746;11.780;2022-11-21T01:50:51;99994.91;;;1.41;100.00
57827;BME280;43656;57.746;11.780;2022-11-21T01:53:17;100053.13;;;1.59;100.00
57827;BME280;43656;57.746;11.780;2022-11-21T01:55:43;100043.56;;;1.66;100.00
57827;BME280;43656;57.746;11.780;2022-11-21T01:58:09;100057.66;;;1.67;100.00
57827;BME280;43656;57.746;11.780;2022-11-21T02:00:38;100030.31;;;1.66;100.00
57827;BME280;43656;57.746;11.780;2022-11-21T02:03:08;99998.41;;;1.50;100.00
57827;BME280;43656;57.746;11.780;2022-11-21T02:05:36;100034.34;;;1.95;99.56
57827;BME280;43656;57.746;11.780;2022-11-21T02:08:05;100029.75;;;2.13;98.25
57827;BME280;43656;57.746;11.780;2022-11-21T02:10:33;100024.44;;;2.21;97.67
57827;BME280;43656;57.746;11.780;2022-11-21T02:13:01;99998.19;;;2.02;97.95
57827;BME280;43656;57.746;11.780;2022-11-21T02:15:28;100034.03;;;1.98;98.64
57827;BME280;43656;57.746;11.780;2022-11-21T02:17:53;100033.06;;;2.15;97.40
57827;BME280;43656;57.746;11.780;2022-11-21T02:20:24;100030.56;;;2.05;98.53
57827;BME280;43656;57.746;11.780;2022-11-21T02:25:29;99970.31;;;1.81;97.28
57827;BME280;43656;57.746;11.780;2022-11-21T02:28:00;100016.78;;;1.94;97.57
57827;BME280;43656;57.746;11.780;2022-11-21T02:30:31;99985.09;;;1.76;98.23
57827;BME280;43656;57.746;11.780;2022-11-21T02:32:57;100019.25;;;1.87;98.21
57827;BME280;43656;57.746;11.780;2022-11-21T02:35:23;100015.78;;;1.86;99.23
57827;BME280;43656;57.746;11.780;2022-11-21T02:40:39;99971.13;;;1.74;99.11
57827;BME280;43656;57.746;11.780;2022-11-21T02:43:13;99975.81;;;1.80;98.73
57827;BME280;43656;57.746;11.780;2022-11-21T02:45:41;99999.72;;;1.96;98.84
57827;BME280;43656;57.746;11.780;2022-11-21T02:48:07;99988.91;;;1.90;99.13
57827;BME280;43656;57.746;11.780;2022-11-21T02:50:35;99953.56;;;1.81;98.43
57827;BME280;43656;57.746;11.780;2022-11-21T02:53:02;99966.38;;;2.02;98.85
57827;BME280;43656;57.746;11.780;2022-11-21T02:55:28;99971.34;;;2.05;98.50
57827;BME280;43656;57.746;11.780;2022-11-21T02:57:54;99982.47;;;2.25;97.96
57827;BME280;43656;57.746;11.780;2022-11-21T03:00:19;99980.50;;;2.19;97.37
57827;BME280;43656;57.746;11.780;2022-11-21T03:03:05;99981.31;;;2.03;98.49
57827;BME280;43656;57.746;11.780;2022-11-21T03:05:30;99971.84;;;2.08;98.35
57827;BME280;43656;57.746;11.780;2022-11-21T03:07:56;99971.19;;;2.15;97.42
57827;BME280;43656;57.746;11.780;2022-11-21T03:10:21;99975.19;;;2.02;98.62
57827;BME280;43656;57.746;11.780;2022-11-21T03:12:49;99879.41;;;1.38;98.62
57827;BME280;43656;57.746;11.780;2022-11-21T03:15:15;99974.34;;;2.10;98.37
57827;BME280;43656;57.746;11.780;2022-11-21T03:17:41;99961.38;;;1.91;99.13
57827;BME280;43656;57.746;11.780;2022-11-21T03:20:07;99979.44;;;1.95;100.00
57827;BME280;43656;57.746;11.780;2022-11-21T03:22:33;99971.03;;;2.00;99.71
57827;BME280;43656;57.746;11.780;2022-11-21T03:24:58;99923.38;;;1.57;100.00
57827;BME280;43656;57.746;11.780;2022-11-21T03:27:24;99962.72;;;1.95;100.00
57827;BME280;43656;57.746;11.780;2022-11-21T03:29:49;99962.22;;;1.91;100.00
57827;BME280;43656;57.746;11.780;2022-11-21T03:32:15;99959.25;;;2.10;99.32
57827;BME280;43656;57.746;11.780;2022-11-21T03:34:40;99960.44;;;2.16;98.96
57827;BME280;43656;57.746;11.780;2022-11-21T03:37:06;99968.53;;;2.06;97.89
57827;BME280;43656;57.746;11.780;2022-11-21T03:39:31;99937.19;;;1.94;97.61
57827;BME280;43656;57.746;11.780;2022-11-21T03:41:57;99959.91;;;2.04;97.67
57827;BME280;43656;57.746;11.780;2022-11-21T03:44:22;99932.19;;;1.91;97.36
57827;BME280;43656;57.746;11.780;2022-11-21T03:46:48;99952.13;;;2.19;96.78
57827;BME280;43656;57.746;11.780;2022-11-21T03:49:14;99937.69;;;1.97;96.63
57827;BME280;43656;57.746;11.780;2022-11-21T03:51:41;99968.72;;;2.13;96.77
57827;BME280;43656;57.746;11.780;2022-11-21T03:54:06;99951.94;;;1.96;96.74
57827;BME280;43656;57.746;11.780;2022-11-21T03:56:32;99957.44;;;2.03;96.97
57827;BME280;43656;57.746;11.780;2022-11-21T03:58:58;99948.50;;;2.12;95.97
57827;BME280;43656;57.746;11.780;2022-11-21T04:01:23;99954.59;;;2.04;96.67
57827;BME280;43656;57.746;11.780;2022-11-21T04:03:49;99959.56;;;2.07;95.87
57827;BME280;43656;57.746;11.780;2022-11-21T04:06:20;99951.47;;;2.25;95.51
57827;BME280;43656;57.746;11.780;2022-11-21T04:08:46;99943.66;;;2.24;94.95
57827;BME280;43656;57.746;11.780;2022-11-21T04:11:11;99948.47;;;2.37;94.67
57827;BME280;43656;57.746;11.780;2022-11-21T04:13:37;99948.47;;;2.20;94.45
57827;BME280;43656;57.746;11.780;2022-11-21T04:16:05;99954.44;;;2.30;94.43
57827;BME280;43656;57.746;11.780;2022-11-21T04:18:30;99950.13;;;2.29;94.55
57827;BME280;43656;57.746;11.780;2022-11-21T04:21:00;99948.81;;;2.33;94.75
57827;BME280;43656;57.746;11.780;2022-11-21T04:23:27;99949.13;;;2.14;95.46
57827;BME280;43656;57.746;11.780;2022-11-21T04:25:55;99932.38;;;2.14;94.93
57827;BME280;43656;57.746;11.780;2022-11-21T04:28:21;99942.50;;;2.26;94.72
57827;BME280;43656;57.746;11.780;2022-11-21T04:30:46;99929.72;;;2.38;94.44
57827;BME280;43656;57.746;11.780;2022-11-21T04:33:13;99939.50;;;2.46;93.89
57827;BME280;43656;57.746;11.780;2022-11-21T04:35:39;99940.81;;;2.50;93.47
57827;BME280;43656;57.746;11.780;2022-11-21T04:38:05;99936.19;;;2.44;94.78
57827;BME280;43656;57.746;11.780;2022-11-21T04:40:30;99935.81;;;2.55;94.59
57827;BME280;43656;57.746;11.780;2022-11-21T04:42:55;99931.03;;;2.50;94.31
57827;BME280;43656;57.746;11.780;2022-11-21T04:45:21;99888.09;;;2.14;94.29
57827;BME280;43656;57.746;11.780;2022-11-21T04:47:46;99920.25;;;2.52;94.28
57827;BME280;43656;57.746;11.780;2022-11-21T04:50:14;99912.94;;;2.62;93.33
57827;BME280;43656;57.746;11.780;2022-11-21T04:52:40;99899.19;;;2.42;94.50
57827;BME280;43656;57.746;11.780;2022-11-21T04:55:07;99905.97;;;2.53;93.55
57827;BME280;43656;57.746;11.780;2022-11-21T04:57:32;99908.97;;;2.50;93.64
57827;BME280;43656;57.746;11.780;2022-11-21T04:59:58;99877.16;;;2.17;93.70
57827;BME280;43656;57.746;11.780;2022-11-21T05:02:24;99899.38;;;2.32;93.21
57827;BME280;43656;57.746;11.780;2022-11-21T05:04:54;99899.50;;;2.47;93.79
57827;BME280;43656;57.746;11.780;2022-11-21T05:07:20;99910.94;;;2.56;94.07
57827;BME280;43656;57.746;11.780;2022-11-21T05:09:45;99894.72;;;2.26;94.19
57827;BME280;43656;57.746;11.780;2022-11-21T05:12:11;99892.41;;;2.15;95.60
57827;BME280;43656;57.746;11.780;2022-11-21T05:14:55;99919.63;;;2.25;96.80
57827;BME280;43656;57.746;11.780;2022-11-21T05:17:21;99910.78;;;2.49;95.50
57827;BME280;43656;57.746;11.780;2022-11-21T05:19:46;99901.00;;;2.33;96.90
57827;BME280;43656;57.746;11.780;2022-11-21T05:22:12;99901.53;;;2.29;96.92
57827;BME280;43656;57.746;11.780;2022-11-21T05:24:37;99877.63;;;2.21;97.48
57827;BME280;43656;57.746;11.780;2022-11-21T05:27:03;99901.84;;;2.34;97.52
57827;BME280;43656;57.746;11.780;2022-11-21T05:29:29;99894.38;;;2.38;96.74
57827;BME280;43656;57.746;11.780;2022-11-21T05:31:57;99905.00;;;2.29;97.09
57827;BME280;43656;57.746;11.780;2022-11-21T05:34:23;99877.47;;;2.14;96.84
57827;BME280;43656;57.746;11.780;2022-11-21T05:36:51;99893.53;;;2.37;97.05
57827;BME280;43656;57.746;11.780;2022-11-21T05:39:21;99894.03;;;2.41;96.75
57827;BME280;43656;57.746;11.780;2022-11-21T05:41:46;99890.88;;;2.37;96.96
57827;BME280;43656;57.746;11.780;2022-11-21T05:44:12;99888.41;;;2.35;96.02
57827;BME280;43656;57.746;11.780;2022-11-21T05:46:37;99895.72;;;2.33;96.75
57827;BME280;43656;57.746;11.780;2022-11-21T05:49:02;99894.69;;;2.34;96.89
57827;BME280;43656;57.746;11.780;2022-11-21T05:51:28;99866.22;;;2.12;96.58
57827;BME280;43656;57.746;11.780;2022-11-21T05:53:53;99879.09;;;2.31;96.37
57827;BME280;43656;57.746;11.780;2022-11-21T05:56:19;99894.38;;;2.46;96.42
57827;BME280;43656;57.746;11.780;2022-11-21T05:58:45;99890.91;;;2.29;97.39
57827;BME280;43656;57.746;11.780;2022-11-21T06:01:12;99878.63;;;2.36;97.83
57827;BME280;43656;57.746;11.780;2022-11-21T06:03:40;99891.72;;;2.46;96.72
57827;BME280;43656;57.746;11.780;2022-11-21T06:06:11;99883.44;;;2.32;97.66
57827;BME280;43656;57.746;11.780;2022-11-21T06:08:44;99871.63;;;2.35;97.08
57827;BME280;43656;57.746;11.780;2022-11-21T06:11:12;99884.72;;;2.45;96.99
57827;BME280;43656;57.746;11.780;2022-11-21T06:13:38;99880.75;;;2.49;95.67
57827;BME280;43656;57.746;11.780;2022-11-21T06:16:13;99874.97;;;2.37;96.71
57827;BME280;43656;57.746;11.780;2022-11-21T06:18:43;99867.19;;;2.35;96.39
57827;BME280;43656;57.746;11.780;2022-11-21T06:21:13;99877.47;;;2.39;96.31
57827;BME280;43656;57.746;11.780;2022-11-21T06:23:39;99867.97;;;2.44;95.36
57827;BME280;43656;57.746;11.780;2022-11-21T06:26:06;99886.38;;;2.62;95.04
57827;BME280;43656;57.746;11.780;2022-11-21T06:28:34;99894.03;;;2.49;95.57
57827;BME280;43656;57.746;11.780;2022-11-21T06:31:29;99896.53;;;2.42;95.94
57827;BME280;43656;57.746;11.780;2022-11-21T06:33:57;99897.03;;;2.46;95.70
57827;BME280;43656;57.746;11.780;2022-11-21T06:36:23;99893.03;;;2.50;94.92
57827;BME280;43656;57.746;11.780;2022-11-21T06:38:49;99902.00;;;2.49;94.92
57827;BME280;43656;57.746;11.780;2022-11-21T06:41:22;99905.28;;;2.59;94.69
57827;BME280;43656;57.746;11.780;2022-11-21T06:44:00;99873.94;;;2.38;94.35
57827;BME280;43656;57.746;11.780;2022-11-21T06:46:26;99895.66;;;2.58;93.75
57827;BME280;43656;57.746;11.780;2022-11-21T06:48:52;99915.25;;;2.65;94.11
57827;BME280;43656;57.746;11.780;2022-11-21T06:51:20;99890.88;;;2.45;94.08
57827;BME280;43656;57.746;11.780;2022-11-21T06:53:46;99921.91;;;2.53;94.53
57827;BME280;43656;57.746;11.780;2022-11-21T06:56:14;99922.53;;;2.55;94.65
57827;BME280;43656;57.746;11.780;2022-11-21T06:58:39;99880.94;;;2.31;93.74
57827;BME280;43656;57.746;11.780;2022-11-21T07:01:09;99924.88;;;2.66;93.82
57827;BME280;43656;57.746;11.780;2022-11-21T07:03:35;99918.38;;;2.69;93.92
57827;BME280;43656;57.746;11.780;2022-11-21T07:06:01;99913.75;;;2.54;93.82
57827;BME280;43656;57.746;11.780;2022-11-21T07:08:27;99906.97;;;2.44;93.57
57827;BME280;43656;57.746;11.780;2022-11-21T07:10:53;99924.72;;;2.35;94.29
57827;BME280;43656;57.746;11.780;2022-11-21T07:13:18;99917.28;;;2.30;94.64
57827;BME280;43656;57.746;11.780;2022-11-21T07:15:48;99904.00;;;2.14;94.90
57827;BME280;43656;57.746;11.780;2022-11-21T07:18:14;99934.53;;;2.26;94.65
57827;BME280;43656;57.746;11.780;2022-11-21T07:20:40;99933.88;;;2.32;94.05
57827;BME280;43656;57.746;11.780;2022-11-21T07:23:06;99942.66;;;2.33;93.96
57827;BME280;43656;57.746;11.780;2022-11-21T07:25:32;99936.34;;;2.34;93.58
57827;BME280;43656;57.746;11.780;2022-11-21T07:27:58;99941.50;;;2.44;93.29
57827;BME280;43656;57.746;11.780;2022-11-21T07:30:24;99954.94;;;2.50;93.58
57827;BME280;43656;57.746;11.780;2022-11-21T07:32:56;99953.44;;;2.48;92.84
57827;BME280;43656;57.746;11.780;2022-11-21T07:35:22;99962.72;;;2.44;92.80
57827;BME280;43656;57.746;11.780;2022-11-21T07:37:48;99961.06;;;2.34;93.33
57827;BME280;43656;57.746;11.780;2022-11-21T07:40:13;99937.69;;;2.14;93.86
57827;BME280;43656;57.746;11.780;2022-11-21T07:42:39;99968.06;;;2.35;93.39
57827;BME280;43656;57.746;11.780;2022-11-21T07:45:07;99963.09;;;2.32;94.02
57827;BME280;43656;57.746;11.780;2022-11-21T07:47:32;99963.72;;;2.18;94.17
57827;BME280;43656;57.746;11.780;2022-11-21T07:49:58;99963.56;;;2.20;94.63
57827;BME280;43656;57.746;11.780;2022-11-21T07:52:23;99968.69;;;2.21;94.19
57827;BME280;43656;57.746;11.780;2022-11-21T07:54:50;99975.03;;;2.12;94.59
57827;BME280;43656;57.746;11.780;2022-11-21T07:57:16;99973.03;;;2.22;94.38
57827;BME280;43656;57.746;11.780;2022-11-21T07:59:41;99969.72;;;2.20;94.13
57827;BME280;43656;57.746;11.780;2022-11-21T08:02:11;99979.34;;;2.29;93.74
57827;BME280;43656;57.746;11.780;2022-11-21T08:04:52;99976.19;;;2.26;93.92
57827;BME280;43656;57.746;11.780;2022-11-21T08:07:19;99970.84;;;2.18;93.88
57827;BME280;43656;57.746;11.780;2022-11-21T08:09:45;99983.31;;;2.09;94.09
57827;BME280;43656;57.746;11.780;2022-11-21T08:12:10;99987.94;;;2.15;94.02
57827;BME280;43656;57.746;11.780;2022-11-21T08:14:36;99988.94;;;2.06;94.17
57827;BME280;43656;57.746;11.780;2022-11-21T08:17:03;99992.25;;;2.08;94.38
57827;BME280;43656;57.746;11.780;2022-11-21T08:19:28;99990.91;;;2.04;94.42
57827;BME280;43656;57.746;11.780;2022-11-21T08:21:54;99966.03;;;2.05;93.94
57827;BME280;43656;57.746;11.780;2022-11-21T08:24:19;99989.75;;;2.15;94.17
57827;BME280;43656;57.746;11.780;2022-11-21T08:26:45;99997.59;;;2.16;94.04
57827;BME280;43656;57.746;11.780;2022-11-21T08:29:11;99996.25;;;2.20;93.63
57827;BME280;43656;57.746;11.780;2022-11-21T08:31:38;99994.91;;;2.00;94.70
57827;BME280;43656;57.746;11.780;2022-11-21T08:34:04;99977.84;;;2.02;94.13
57827;BME280;43656;57.746;11.780;2022-11-21T08:36:29;99995.25;;;2.21;94.35
57827;BME280;43656;57.746;11.780;2022-11-21T08:38:55;99998.91;;;2.12;94.66
57827;BME280;43656;57.746;11.780;2022-11-21T08:41:20;100001.53;;;1.96;96.46
57827;BME280;43656;57.746;11.780;2022-11-21T08:44:04;99972.31;;;1.87;96.28
57827;BME280;43656;57.746;11.780;2022-11-21T08:46:31;100008.81;;;1.85;97.57
57827;BME280;43656;57.746;11.780;2022-11-21T08:48:58;100008.66;;;2.11;96.30
57827;BME280;43656;57.746;11.780;2022-11-21T08:51:23;99987.19;;;1.72;97.49
57827;BME280;43656;57.746;11.780;2022-11-21T08:53:49;100002.38;;;2.04;97.15
57827;BME280;43656;57.746;11.780;2022-11-21T08:56:15;100007.03;;;2.27;95.73
57827;BME280;43656;57.746;11.780;2022-11-21T08:58:40;100015.31;;;2.07;96.97
57827;BME280;43656;57.746;11.780;2022-11-21T09:01:06;100021.44;;;2.00;98.19
57827;BME280;43656;57.746;11.780;2022-11-21T09:03:31;100005.34;;;1.93;98.82
57827;BME280;43656;57.746;11.780;2022-11-21T09:05:58;99968.69;;;1.97;97.61
57827;BME280;43656;57.746;11.780;2022-11-21T09:08:23;100011.53;;;2.26;97.58
57827;BME280;43656;57.746;11.780;2022-11-21T09:10:49;100018.16;;;2.30;97.92
57827;BME280;43656;57.746;11.780;2022-11-21T09:13:15;100033.41;;;2.12;98.08
57827;BME280;43656;57.746;11.780;2022-11-21T09:15:40;100022.44;;;2.15;98.78
57827;BME280;43656;57.746;11.780;2022-11-21T09:18:24;100031.44;;;2.30;98.28
57827;BME280;43656;57.746;11.780;2022-11-21T09:20:49;99998.72;;;2.05;98.71
57827;BME280;43656;57.746;11.780;2022-11-21T09:23:15;100021.63;;;2.06;99.50
57827;BME280;43656;57.746;11.780;2022-11-21T09:25:42;100028.75;;;2.14;99.51
57827;BME280;43656;57.746;11.780;2022-11-21T09:28:10;100029.28;;;2.26;99.79
57827;BME280;43656;57.746;11.780;2022-11-21T09:30:54;100024.78;;;2.26;99.13
57827;BME280;43656;57.746;11.780;2022-11-21T09:33:20;100006.72;;;2.30;99.58
57827;BME280;43656;57.746;11.780;2022-11-21T09:35:45;100040.56;;;2.61;98.71
57827;BME280;43656;57.746;11.780;2022-11-21T09:38:11;100027.78;;;2.40;98.49
57827;BME280;43656;57.746;11.780;2022-11-21T09:40:40;100042.22;;;2.53;99.12
57827;BME280;43656;57.746;11.780;2022-11-21T09:46:01;100043.56;;;2.66;98.54
57827;BME280;43656;57.746;11.780;2022-11-21T09:48:33;100049.03;;;2.48;98.71
57827;BME280;43656;57.746;11.780;2022-11-21T09:51:03;100048.88;;;2.66;98.67
57827;BME280;43656;57.746;11.780;2022-11-21T09:53:58;99982.63;;;2.15;97.74
57827;BME280;43656;57.746;11.780;2022-11-21T09:56:25;100045.38;;;2.57;98.12
57827;BME280;43656;57.746;11.780;2022-11-21T10:01:39;100035.72;;;2.31;98.03
57827;BME280;43656;57.746;11.780;2022-11-21T10:04:05;100057.97;;;2.55;98.17
57827;BME280;43656;57.746;11.780;2022-11-21T10:06:32;100061.63;;;2.38;98.34
57827;BME280;43656;57.746;11.780;2022-11-21T10:09:17;100048.03;;;2.49;97.85
57827;BME280;43656;57.746;11.780;2022-11-21T10:17:56;100064.31;;;2.62;96.90
57827;BME280;43656;57.746;11.780;2022-11-21T10:23:35;100066.13;;;2.37;96.85
57827;BME280;43656;57.746;11.780;2022-11-21T10:29:01;100027.44;;;2.26;96.08
57827;BME280;43656;57.746;11.780;2022-11-21T10:31:35;100063.97;;;2.32;95.91
57827;BME280;43656;57.746;11.780;2022-11-21T10:34:09;100066.63;;;2.57;96.14
57827;BME280;43656;57.746;11.780;2022-11-21T10:36:36;100061.16;;;2.50;94.98
57827;BME280;43656;57.746;11.780;2022-11-21T10:39:26;100056.66;;;2.67;94.76
57827;BME280;43656;57.746;11.780;2022-11-21T10:44:54;100058.66;;;2.81;94.06
57827;BME280;43656;57.746;11.780;2022-11-21T10:47:39;100060.63;;;2.96;93.00
57827;BME280;43656;57.746;11.780;2022-11-21T10:52:39;100047.34;;;2.55;92.67
57827;BME280;43656;57.746;11.780;2022-11-21T10:55:12;100058.16;;;2.45;93.38
57827;BME280;43656;57.746;11.780;2022-11-21T10:57:48;100042.72;;;2.41;93.98
57827;BME280;43656;57.746;11.780;2022-11-21T11:00:25;100070.25;;;2.48;93.74
57827;BME280;43656;57.746;11.780;2022-11-21T11:05:27;100065.78;;;2.56;92.51
57827;BME280;43656;57.746;11.780;2022-11-21T11:08:09;100070.59;;;2.37;92.74
57827;BME280;43656;57.746;11.780;2022-11-21T11:10:44;100039.91;;;2.26;92.97
57827;BME280;43656;57.746;11.780;2022-11-21T11:13:15;100057.31;;;2.37;92.72
57827;BME280;43656;57.746;11.780;2022-11-21T11:16:15;100076.56;;;2.47;92.96
57827;BME280;43656;57.746;11.780;2022-11-21T11:18:47;100067.94;;;2.77;91.13
57827;BME280;43656;57.746;11.780;2022-11-21T11:21:17;100076.59;;;2.63;90.99
57827;BME280;43656;57.746;11.780;2022-11-21T11:23:43;100068.75;;;2.37;91.75
57827;BME280;43656;57.746;11.780;2022-11-21T11:26:23;100078.41;;;2.54;90.83
57827;BME280;43656;57.746;11.780;2022-11-21T11:28:50;100047.69;;;2.19;91.15
57827;BME280;43656;57.746;11.780;2022-11-21T11:31:15;100088.19;;;2.54;90.85
57827;BME280;43656;57.746;11.780;2022-11-21T11:36:37;100083.22;;;2.43;91.14
57827;BME280;43656;57.746;11.780;2022-11-21T11:42:26;100088.06;;;2.72;91.73
57827;BME280;43656;57.746;11.780;2022-11-21T11:48:27;100070.13;;;2.49;91.80
57827;BME280;43656;57.746;11.780;2022-11-21T11:50:59;100078.88;;;2.42;92.07
57827;BME280;43656;57.746;11.780;2022-11-21T11:53:36;100090.19;;;2.35;93.38
57827;BME280;43656;57.746;11.780;2022-11-21T11:56:15;100096.28;;;2.28;94.23
57827;BME280;43656;57.746;11.780;2022-11-21T11:58:50;100092.16;;;2.33;93.50
57827;BME280;43656;57.746;11.780;2022-11-21T12:04:20;100092.47;;;2.30;93.28
57827;BME280;43656;57.746;11.780;2022-11-21T12:07:05;100087.31;;;2.21;93.76
57827;BME280;43656;57.746;11.780;2022-11-21T12:09:38;100074.72;;;2.23;93.53
57827;BME280;43656;57.746;11.780;2022-11-21T12:21:07;100086.81;;;2.17;90.76
57827;BME280;43656;57.746;11.780;2022-11-21T12:23:39;100082.53;;;2.32;90.87
57827;BME280;43656;57.746;11.780;2022-11-21T12:31:39;100083.06;;;2.52;88.85
57827;BME280;43656;57.746;11.780;2022-11-21T12:34:47;100078.06;;;2.33;88.70
57827;BME280;43656;57.746;11.780;2022-11-21T12:54:39;100089.81;;;2.22;88.10
57827;BME280;43656;57.746;11.780;2022-11-21T12:57:10;100088.47;;;2.18;87.70
57827;BME280;43656;57.746;11.780;2022-11-21T13:05:22;100095.31;;;2.29;88.03
57827;BME280;43656;57.746;11.780;2022-11-21T13:07:53;100098.75;;;2.21;87.67
57827;BME280;43656;57.746;11.780;2022-11-21T13:10:23;100089.78;;;2.14;87.62
57827;BME280;43656;57.746;11.780;2022-11-21T13:13:09;100095.78;;;2.24;87.44
57827;BME280;43656;57.746;11.780;2022-11-21T13:15:46;100081.81;;;2.14;87.39
57827;BME280;43656;57.746;11.780;2022-11-21T13:18:51;100063.75;;;2.09;86.63
57827;BME280;43656;57.746;11.780;2022-11-21T13:21:43;100094.50;;;2.37;85.77
57827;BME280;43656;57.746;11.780;2022-11-21T13:24:09;100097.44;;;2.17;85.95
57827;BME280;43656;57.746;11.780;2022-11-21T13:26:46;100068.56;;;2.14;86.30
57827;BME280;43656;57.746;11.780;2022-11-21T13:29:15;100096.28;;;2.28;85.86
57827;BME280;43656;57.746;11.780;2022-11-21T13:31:41;100099.56;;;2.05;86.22
57827;BME280;43656;57.746;11.780;2022-11-21T13:34:36;100092.44;;;2.06;86.04
57827;BME280;43656;57.746;11.780;2022-11-21T13:37:03;100086.94;;;2.07;86.42
57827;BME280;43656;57.746;11.780;2022-11-21T13:39:31;100092.81;;;2.19;86.01
57827;BME280;43656;57.746;11.780;2022-11-21T13:42:07;100102.06;;;2.07;86.37
57827;BME280;43656;57.746;11.780;2022-11-21T13:44:52;100099.09;;;2.18;86.12
57827;BME280;43656;57.746;11.780;2022-11-21T14:08:22;100108.31;;;1.90;86.96
57827;BME280;43656;57.746;11.780;2022-11-21T14:10:52;100108.31;;;1.90;87.15
57827;BME280;43656;57.746;11.780;2022-11-21T14:18:28;100095.66;;;1.83;87.68
57827;BME280;43656;57.746;11.780;2022-11-21T14:20:56;100109.63;;;1.94;87.79
57827;BME280;43656;57.746;11.780;2022-11-21T14:23:28;100098.97;;;1.77;87.87
57827;BME280;43656;57.746;11.780;2022-11-21T14:26:13;100103.50;;;2.01;87.60
57827;BME280;43656;57.746;11.780;2022-11-21T14:28:39;100111.97;;;2.05;87.77
57827;BME280;43656;57.746;11.780;2022-11-21T14:31:10;100108.94;;;1.92;88.33
57827;BME280;43656;57.746;11.780;2022-11-21T14:33:43;100110.13;;;1.97;87.48
57827;BME280;43656;57.746;11.780;2022-11-21T14:36:16;100110.56;;;1.76;88.09
57827;BME280;43656;57.746;11.780;2022-11-21T14:38:44;100107.09;;;1.84;88.71
57827;BME280;43656;57.746;11.780;2022-11-21T14:49:47;100074.00;;;1.54;89.23
57827;BME280;43656;57.746;11.780;2022-11-21T14:52:27;100082.09;;;1.52;89.26
57827;BME280;43656;57.746;11.780;2022-11-21T14:54:56;100107.31;;;1.91;88.42
57827;BME280;43656;57.746;11.780;2022-11-21T14:57:28;100112.53;;;1.74;88.95